Time;durP1;ratioP1;P1;durP2;ratioP2;P2;SDS_P1;SDS_P2;PMS_P1;PMS_P2;Temp;Humidity;BMP_temperature;BMP_pressure;BME280_temperature;BME280_humidity;BME280_pressure;Samples;Min_cycle;Max_cycle;Signal;HPM_P1;HPM_P2
2021/08/12 05:50:55;;;;;;;17.30;10.60;;;18.20;99.90;;;;;;5797138;24;20431;-82
2021/08/12 06:29:02;;;;;;;16.50;11.83;;;19.10;85.80;;;;;;5946890;23;20455;-84
2021/08/12 06:31:29;;;;;;;22.07;12.20;;;19.10;86.60;;;;;;6149103;23;20497;-81
2021/08/12 06:33:56;;;;;;;19.30;11.03;;;19.20;87.00;;;;;;6161570;23;20414;-83
2021/08/12 06:36:23;;;;;;;18.37;11.00;;;19.20;85.40;;;;;;6153902;23;20975;-81
2021/08/12 06:38:49;;;;;;;13.47;11.00;;;19.30;85.40;;;;;;6154130;23;20438;-81
2021/08/12 06:41:16;;;;;;;16.17;10.53;;;19.50;85.60;;;;;;6152280;23;20768;-80
2021/08/12 06:43:43;;;;;;;17.80;11.63;;;19.80;85.90;;;;;;6195226;23;20897;-84
2021/08/12 06:46:11;;;;;;;14.00;10.00;;;20.00;81.80;;;;;;6213141;23;20439;-79
2021/08/12 06:48:38;;;;;;;15.70;10.50;;;20.30;78.40;;;;;;6213589;23;20400;-80
2021/08/12 06:51:06;;;;;;;14.20;9.10;;;20.50;75.30;;;;;;6215908;23;20775;-81
2021/08/12 06:53:32;;;;;;;13.97;10.23;;;20.60;73.80;;;;;;6225392;23;20443;-79
2021/08/12 06:55:59;;;;;;;14.50;9.87;;;20.70;71.90;;;;;;6212365;23;20424;-81
2021/08/12 06:58:26;;;;;;;15.20;10.73;;;20.80;70.80;;;;;;6215986;23;20462;-81
2021/08/12 07:00:53;;;;;;;16.10;10.20;;;20.80;70.80;;;;;;6226704;23;20470;-82
2021/08/12 07:03:21;;;;;;;17.43;10.50;;;20.90;69.90;;;;;;6225932;23;20887;-81
2021/08/12 07:05:48;;;;;;;15.17;10.30;;;21.10;68.80;;;;;;6216813;23;20918;-81
2021/08/12 07:08:15;;;;;;;16.10;10.77;;;21.20;64.60;;;;;;6226666;23;20419;-81
2021/08/12 07:10:42;;;;;;;16.17;9.43;;;21.40;65.20;;;;;;6223866;23;21066;-84
2021/08/12 07:13:08;;;;;;;15.67;11.60;;;21.40;64.10;;;;;;6227701;23;20512;-85
2021/08/12 07:15:35;;;;;;;14.27;10.37;;;21.20;60.60;;;;;;6217219;23;20403;-81
2021/08/12 07:18:02;;;;;;;15.13;10.20;;;21.30;63.00;;;;;;6216966;23;20515;-82
2021/08/12 07:20:30;;;;;;;16.17;10.10;;;21.40;61.50;;;;;;6217542;23;20395;-79
2021/08/12 07:22:57;;;;;;;13.63;9.90;;;21.20;61.30;;;;;;6217266;23;20785;-78
2021/08/12 07:25:24;;;;;;;15.57;10.20;;;21.40;60.20;;;;;;6216317;23;20399;-79
2021/08/12 07:27:51;;;;;;;21.10;10.60;;;21.70;59.50;;;;;;6216462;23;20466;-79
2021/08/12 07:30:18;;;;;;;16.83;10.10;;;21.90;58.90;;;;;;6217383;23;20439;-79
2021/08/12 07:32:45;;;;;;;20.40;10.87;;;21.90;57.60;;;;;;6217445;23;20507;-81
2021/08/12 07:35:12;;;;;;;17.60;10.70;;;22.00;56.80;;;;;;6216751;23;20400;-81
2021/08/12 08:26:40;;;;;;;14.65;10.70;;;23.40;47.50;;;;;;6161536;23;20410;-80
2021/08/12 08:29:06;;;;;;;18.20;11.90;;;23.70;47.80;;;;;;6184898;23;20272;-79
2021/08/12 08:31:33;;;;;;;17.83;10.97;;;23.60;47.70;;;;;;6184966;23;20433;-78
2021/08/12 08:34:00;;;;;;;15.47;9.70;;;23.60;44.10;;;;;;6194688;23;20448;-80
2021/08/12 08:36:34;;;;;;;13.93;10.00;;;23.90;42.30;;;;;;6174091;23;20988;-83
2021/08/12 09:55:07;;;;;;;12.43;7.70;;;27.60;15.20;;;;;;6164223;23;20439;-85
2021/08/12 10:48:01;;;;;;;7.03;4.30;;;29.70;3.40;;;;;;6196197;22;20487;-78
2021/08/12 10:50:37;;;;;;;9.63;4.80;;;30.10;4.80;;;;;;6215247;23;20483;-79
2021/08/12 10:53:20;;;;;;;9.77;5.37;;;30.10;4.80;;;;;;6215568;23;20379;-80
2021/08/12 10:56:11;;;;;;;9.37;4.40;;;29.30;2.60;;;;;;6213846;23;20687;-81
2021/08/12 10:59:13;;;;;;;11.93;4.20;;;29.60;2.10;;;;;;6215524;23;20432;-79
2021/08/12 11:01:41;;;;;;;10.00;5.30;;;29.30;2.60;;;;;;6207715;23;20491;-80
2021/08/12 11:04:09;;;;;;;8.27;5.00;;;29.00;3.60;;;;;;6215361;23;20400;-80
2021/08/12 11:06:45;;;;;;;9.90;5.20;;;29.00;2.50;;;;;;6225144;23;20415;-80
2021/08/12 11:09:13;;;;;;;7.43;4.13;;;28.40;7.90;;;;;;6215164;23;20875;-79
2021/08/12 11:11:59;;;;;;;9.63;5.00;;;28.20;4.60;;;;;;6213520;23;20404;-79
2021/08/12 11:14:50;;;;;;;10.40;4.93;;;28.30;7.10;;;;;;6215025;23;20396;-78
2021/08/12 11:17:18;;;;;;;10.07;4.70;;;28.30;10.00;;;;;;6214997;23;20962;-79
2021/08/12 11:19:46;;;;;;;8.70;4.33;;;28.40;4.60;;;;;;6215118;23;20880;-80
2021/08/12 11:22:35;;;;;;;9.47;4.60;;;28.10;5.20;;;;;;6215394;23;20436;-79
2021/08/12 11:25:05;;;;;;;11.73;6.70;;;27.90;4.50;;;;;;6214974;23;20468;-77
2021/08/12 11:27:45;;;;;;;15.33;6.50;;;28.10;7.00;;;;;;6214043;23;20418;-77
2021/08/12 11:30:48;;;;;;;9.83;4.57;;;28.20;7.30;;;;;;6215437;23;20400;-80
2021/08/12 11:34:03;;;;;;;;;;;;;;;;;;;;;
2021/08/12 11:43:53;;;;;;;;;;;;;;;;;;;;;
2021/08/12 11:46:57;;;;;;;8.83;5.67;;;30.10;2.90;;;;;;6039927;23;20422;-84
2021/08/12 11:53:00;;;;;;;8.60;4.77;;;31.10;1.00;;;;;;6185321;23;20489;-84
2021/08/12 11:59:01;;;;;;;9.43;4.70;;;31.90;1.00;;;;;;6090845;23;20987;-85
2021/08/12 12:05:04;;;;;;;7.90;4.30;;;32.20;1.00;;;;;;5984258;23;20422;-84
2021/08/12 12:08:09;;;;;;;;;;;;;;;;;;;;;
2021/08/12 12:10:46;;;;;;;9.20;4.57;;;33.00;1.00;;;;;;6147612;23;20734;-84
2021/08/12 12:13:15;;;;;;;8.63;4.40;;;32.90;1.00;;;;;;6195174;23;20891;-84
2021/08/12 12:16:04;;;;;;;7.20;4.27;;;32.10;1.00;;;;;;6194953;23;20413;-84
2021/08/12 12:18:33;;;;;;;7.67;4.60;;;32.00;1.00;;;;;;6185451;23;20447;-84
2021/08/12 12:21:03;;;;;;;12.20;4.37;;;31.90;1.00;;;;;;6186885;23;20436;-85
2021/08/12 12:26:56;;;;;;;7.20;4.23;;;32.80;1.00;;;;;;6170986;23;20440;-84
2021/08/12 12:29:24;;;;;;;7.53;4.37;;;32.40;1.00;;;;;;6196379;23;20443;-83
2021/08/12 12:32:30;;;;;;;7.70;4.57;;;33.20;1.00;;;;;;6186756;23;20468;-85
2021/08/12 12:35:04;;;;;;;9.20;4.93;;;32.80;1.00;;;;;;6160349;23;20416;-84
2021/08/12 12:37:36;;;;;;;8.40;4.60;;;33.30;1.00;;;;;;6186794;23;20414;-84
2021/08/12 12:40:05;;;;;;;11.17;4.70;;;33.00;1.00;;;;;;6186301;23;20375;-85
2021/08/12 12:42:35;;;;;;;12.03;4.53;;;33.80;1.00;;;;;;6194931;23;20417;-84
2021/08/12 12:45:07;;;;;;;8.30;4.57;;;34.50;1.00;;;;;;6196259;23;20941;-84
2021/08/12 12:47:35;;;;;;;7.60;4.27;;;34.30;1.00;;;;;;6200371;23;20420;-85
2021/08/12 12:50:22;;;;;;;7.30;4.30;;;34.00;1.00;;;;;;6216823;23;20400;-85
2021/08/12 12:52:54;;;;;;;7.73;4.37;;;34.40;1.00;;;;;;6216790;23;20400;-84
2021/08/12 13:13:27;;;;;;;6.97;3.60;;;35.80;1.00;;;;;;5869671;23;20197;-85
2021/08/12 13:16:20;;;;;;;6.80;3.67;;;35.70;1.00;;;;;;6018237;23;20488;-85
2021/08/12 13:19:04;;;;;;;8.60;5.03;;;35.80;1.00;;;;;;6093063;23;20425;-85
2021/08/12 13:21:52;;;;;;;7.40;4.47;;;34.50;1.00;;;;;;6146984;23;20443;-85
2021/08/12 13:25:00;;;;;;;;;;;;;;;;;;;;;
2021/08/12 13:28:10;;;;;;;;;;;;;;;;;;;;;
2021/08/12 13:31:14;;;;;;;9.67;4.27;;;34.20;1.00;;;;;;6209737;23;20494;-85
2021/08/12 13:33:48;;;;;;;10.60;4.67;;;35.30;1.00;;;;;;6191105;23;20397;-85
2021/08/12 13:36:21;;;;;;;8.30;3.77;;;33.40;1.00;;;;;;6215939;23;20951;-84
2021/08/12 13:38:50;;;;;;;6.23;4.30;;;32.40;1.00;;;;;;6225849;23;20566;-85
2021/08/12 13:41:18;;;;;;;5.83;3.70;;;32.20;1.00;;;;;;6224512;23;20694;-84
2021/08/12 13:43:45;;;;;;;8.77;4.90;;;32.70;1.00;;;;;;6226106;23;20718;-84
2021/08/12 13:46:36;;;;;;;7.50;4.40;;;32.70;1.00;;;;;;6216155;23;20665;-85
2021/08/12 13:49:05;;;;;;;8.80;4.10;;;34.30;1.00;;;;;;6205972;23;20445;-84
2021/08/12 13:51:34;;;;;;;8.13;4.50;;;34.40;1.00;;;;;;6215713;23;20375;-84
2021/08/12 13:54:04;;;;;;;8.10;4.83;;;33.60;1.00;;;;;;6215986;23;20743;-84
2021/08/12 13:56:31;;;;;;;8.37;5.03;;;34.10;1.00;;;;;;6214273;23;20385;-83
2021/08/12 13:58:58;;;;;;;8.47;4.30;;;32.70;1.00;;;;;;6215738;23;20450;-84
2021/08/12 14:01:24;;;;;;;9.73;4.67;;;32.50;1.00;;;;;;6215951;23;20415;-83
2021/08/12 14:03:54;;;;;;;7.47;4.63;;;32.60;1.00;;;;;;6216023;23;20748;-84
2021/08/12 14:06:35;;;;;;;7.30;4.80;;;32.70;1.00;;;;;;6215519;23;20396;-86
2021/08/12 14:15:55;;;;;;;9.50;4.80;;;30.90;1.00;;;;;;5924747;23;20394;-84
2021/08/12 14:18:21;;;;;;;7.17;4.60;;;31.10;1.00;;;;;;6215733;23;20478;-84
2021/08/12 14:22:02;;;;;;;;;;;;;;;;;;;;;
2021/08/12 14:27:43;;;;;;;8.27;4.70;;;33.60;1.00;;;;;;6162404;23;20781;-84
2021/08/12 14:30:13;;;;;;;8.67;5.87;;;34.50;1.00;;;;;;6225535;23;20721;-84
2021/08/12 14:32:44;;;;;;;9.40;4.60;;;34.50;1.00;;;;;;6215690;23;20375;-84
2021/08/12 14:35:11;;;;;;;8.90;4.93;;;35.20;1.00;;;;;;6215901;23;20379;-87
2021/08/12 14:37:38;;;;;;;7.77;4.50;;;34.00;1.00;;;;;;6148570;23;20973;-86
2021/08/12 14:40:11;;;;;;;9.63;4.53;;;33.20;1.00;;;;;;6215487;23;20836;-88
2021/08/12 14:42:38;;;;;;;9.00;4.40;;;32.10;1.00;;;;;;6224045;23;20454;-85
2021/08/12 14:45:06;;;;;;;7.13;4.40;;;31.90;1.00;;;;;;6215539;23;20435;-83
2021/08/12 14:47:33;;;;;;;7.47;4.40;;;31.50;1.00;;;;;;6215453;23;20440;-84
2021/08/12 14:50:00;;;;;;;8.63;4.57;;;30.80;1.00;;;;;;6215612;23;20696;-85
2021/08/12 14:52:39;;;;;;;10.10;5.40;;;30.30;1.00;;;;;;6215708;23;20446;-88
2021/08/12 14:58:53;;;;;;;;;;;;;;;;;;;;;
2021/08/12 15:05:19;;;;;;;8.57;4.80;;;29.30;1.00;;;;;;5965802;23;20413;-86
2021/08/12 15:11:25;;;;;;;9.63;4.80;;;29.10;1.00;;;;;;6007451;23;20410;-87
2021/08/12 15:14:46;;;;;;;17.93;4.70;;;29.30;1.00;;;;;;6005842;23;20417;-88
2021/08/12 15:17:35;;;;;;;9.10;4.80;;;28.90;1.00;;;;;;5938694;23;20416;-90
2021/08/12 15:20:15;;;;;;;10.80;5.00;;;28.80;1.00;;;;;;6155079;23;20407;-90
2021/08/12 15:23:17;;;;;;;;;;;;;;;;;;;;;
2021/08/12 15:25:56;;;;;;;10.00;5.20;;;29.00;1.00;;;;;;6212200;23;20414;-89
2021/08/12 15:28:28;;;;;;;8.40;4.07;;;28.80;1.00;;;;;;6213760;23;20476;-89
2021/08/12 15:30:56;;;;;;;9.83;4.93;;;28.70;1.00;;;;;;6225952;23;20439;-89
2021/08/12 15:33:37;;;;;;;11.20;4.60;;;28.30;1.00;;;;;;6225208;23;20503;-89
2021/08/12 15:36:28;;;;;;;8.13;4.80;;;28.10;1.00;;;;;;6225655;23;20469;-88
2021/08/12 15:38:58;;;;;;;12.70;4.83;;;27.70;1.00;;;;;;6226530;23;20394;-89
2021/08/12 15:41:37;;;;;;;10.40;5.20;;;27.80;1.10;;;;;;6223683;23;20383;-89
2021/08/12 15:44:13;;;;;;;11.97;5.00;;;27.90;1.60;;;;;;6225994;23;20412;-90
2021/08/12 15:46:52;;;;;;;8.50;4.97;;;28.60;2.20;;;;;;6225727;23;20479;-89
2021/08/12 15:49:42;;;;;;;8.63;4.80;;;28.60;1.00;;;;;;6215229;23;20448;-89
2021/08/12 15:52:12;;;;;;;8.80;4.43;;;28.90;1.00;;;;;;6225701;23;20400;-90
2021/08/12 15:54:53;;;;;;;8.87;5.07;;;28.70;1.60;;;;;;6225464;23;20408;-89
2021/08/12 15:57:44;;;;;;;9.50;5.50;;;28.60;2.30;;;;;;6223354;23;20934;-90
2021/08/12 16:00:35;;;;;;;9.00;5.40;;;28.60;1.40;;;;;;6224957;23;20411;-89
2021/08/12 16:03:29;;;;;;;;;;;;;;;;;;;;;
2021/08/12 16:08:55;;;;;;;7.93;4.20;;;28.60;1.00;;;;;;6222748;23;20435;-88
2021/08/12 16:11:36;;;;;;;7.90;5.13;;;29.30;1.00;;;;;;6223834;23;20462;-88
2021/08/12 16:16:47;;;;;;;8.30;4.27;;;30.80;1.00;;;;;;6198953;22;20450;-81
2021/08/12 16:19:14;;;;;;;11.03;4.80;;;31.30;1.00;;;;;;6225087;23;20438;-81
2021/08/12 16:21:43;;;;;;;8.87;5.17;;;31.40;1.00;;;;;;6224563;23;20443;-81
2021/08/12 16:24:11;;;;;;;10.83;5.00;;;31.30;1.00;;;;;;6214692;23;20400;-81
2021/08/12 16:27:04;;;;;;;8.87;5.00;;;31.00;1.00;;;;;;6223515;23;20729;-81
2021/08/12 16:32:36;;;;;;;7.63;4.50;;;32.40;1.00;;;;;;6224994;23;20422;-81
2021/08/12 16:35:16;;;;;;;;;;;;;;;;;;;;;
2021/08/12 16:38:16;;;;;;;7.10;4.33;;;31.30;1.00;;;;;;6213850;23;20407;-81
2021/08/12 16:40:44;;;;;;;9.47;5.13;;;31.00;1.00;;;;;;6178694;23;20925;-81
2021/08/12 16:43:11;;;;;;;9.60;4.93;;;31.50;1.00;;;;;;6215179;23;20433;-81
2021/08/12 16:45:38;;;;;;;9.37;4.73;;;32.00;1.00;;;;;;6225305;23;20404;-81
2021/08/12 16:48:06;;;;;;;11.07;4.73;;;31.40;1.00;;;;;;6214903;23;20487;-81
2021/08/12 16:50:33;;;;;;;8.80;5.10;;;30.40;1.00;;;;;;6214781;23;20400;-81
2021/08/12 16:53:22;;;;;;;9.73;5.03;;;29.60;1.00;;;;;;6203450;22;20430;-81
2021/08/12 16:55:50;;;;;;;7.40;4.77;;;29.20;1.00;;;;;;6196624;23;20383;-82
2021/08/12 16:58:17;;;;;;;8.10;4.30;;;29.20;1.00;;;;;;6186573;23;20737;-82
2021/08/12 17:00:44;;;;;;;7.90;5.23;;;28.90;1.00;;;;;;6195979;23;20488;-81
2021/08/12 17:03:11;;;;;;;9.20;5.70;;;28.80;1.00;;;;;;6196187;23;20405;-82
2021/08/12 17:05:38;;;;;;;9.27;5.10;;;28.30;1.00;;;;;;6196088;23;20391;-81
2021/08/12 17:08:05;;;;;;;9.50;4.50;;;28.50;1.00;;;;;;6185006;23;20436;-82
2021/08/12 17:10:37;;;;;;;9.20;5.27;;;28.90;1.00;;;;;;6186053;23;20451;-81
2021/08/12 17:13:05;;;;;;;10.20;5.17;;;29.50;1.00;;;;;;6196438;23;20401;-81
2021/08/12 17:15:33;;;;;;;7.67;4.87;;;29.90;1.00;;;;;;6186359;23;20899;-82
2021/08/12 17:18:00;;;;;;;9.10;4.93;;;30.50;1.00;;;;;;6186022;23;20437;-81
2021/08/12 17:20:27;;;;;;;8.60;4.73;;;29.90;1.00;;;;;;6186376;23;20393;-81
2021/08/12 17:22:54;;;;;;;12.20;5.10;;;29.10;1.00;;;;;;6184986;23;20451;-81
2021/08/12 17:25:23;;;;;;;8.90;5.47;;;28.60;1.00;;;;;;6186241;23;20397;-81
2021/08/12 17:27:50;;;;;;;11.50;5.20;;;28.90;2.40;;;;;;6186117;23;20397;-82
2021/08/12 17:32:53;;;;;;;8.27;4.33;;;30.40;1.00;;;;;;6184264;23;20447;-82
2021/08/12 17:35:20;;;;;;;10.67;4.50;;;29.40;1.00;;;;;;6209776;23;20408;-82
2021/08/12 17:37:47;;;;;;;9.20;6.00;;;28.60;1.00;;;;;;6224495;23;20404;-82
2021/08/12 17:40:14;;;;;;;7.70;5.07;;;28.10;1.90;;;;;;6216196;23;20490;-80
2021/08/12 17:42:41;;;;;;;8.20;4.60;;;27.60;5.20;;;;;;6226203;23;20822;-79
2021/08/12 17:45:09;;;;;;;11.00;4.90;;;27.10;7.10;;;;;;6215870;23;20496;-79
2021/08/12 17:47:38;;;;;;;8.93;4.40;;;26.70;7.90;;;;;;6216139;23;20404;-80
2021/08/12 17:50:07;;;;;;;9.77;5.53;;;26.50;7.80;;;;;;6215626;23;20463;-79
2021/08/12 17:52:35;;;;;;;11.33;6.60;;;26.10;10.60;;;;;;6214123;23;20954;-79
2021/08/12 17:55:02;;;;;;;10.17;5.87;;;25.80;12.10;;;;;;6215554;23;20400;-80
2021/08/12 17:57:35;;;;;;;10.40;6.20;;;25.40;15.00;;;;;;6217006;23;20423;-85
2021/08/12 18:00:02;;;;;;;9.60;6.23;;;25.00;19.50;;;;;;6212195;23;20400;-81
2021/08/12 18:02:29;;;;;;;8.00;5.53;;;24.70;19.20;;;;;;6214161;23;20407;-82
2021/08/12 18:04:56;;;;;;;17.00;6.20;;;24.50;19.40;;;;;;6214385;23;20439;-82
2021/08/12 18:07:24;;;;;;;15.40;5.67;;;24.40;20.80;;;;;;6212598;23;20412;-82
2021/08/12 18:09:51;;;;;;;11.53;5.67;;;24.20;19.40;;;;;;6214341;23;20432;-83
2021/08/12 18:12:18;;;;;;;8.17;4.93;;;24.20;17.40;;;;;;6224087;23;20419;-83
2021/08/12 18:14:49;;;;;;;13.50;6.40;;;24.00;15.10;;;;;;6224408;23;20408;-83
2021/08/12 18:17:16;;;;;;;10.73;5.83;;;23.90;15.00;;;;;;6224001;23;20737;-82
2021/08/12 18:19:43;;;;;;;10.23;5.63;;;23.80;16.30;;;;;;6214151;23;20400;-82
2021/08/12 18:22:10;;;;;;;12.27;5.90;;;23.60;15.80;;;;;;6222568;23;20419;-82
2021/08/12 18:24:38;;;;;;;10.97;5.40;;;23.50;16.30;;;;;;6224545;23;20431;-82
2021/08/12 18:27:07;;;;;;;11.90;5.87;;;23.30;18.00;;;;;;6214554;23;21238;-82
2021/08/12 18:29:34;;;;;;;7.30;5.00;;;23.10;17.70;;;;;;6223714;23;20444;-82
2021/08/12 18:32:03;;;;;;;10.27;5.27;;;22.90;16.70;;;;;;6213914;23;20834;-82
2021/08/12 18:34:30;;;;;;;13.00;7.80;;;22.90;16.40;;;;;;6224151;23;20408;-82
2021/08/12 18:36:57;;;;;;;12.23;5.87;;;22.70;21.90;;;;;;6212876;23;20404;-81
2021/08/12 18:39:25;;;;;;;9.23;5.17;;;22.60;24.10;;;;;;6224246;23;20408;-82
2021/08/12 18:41:53;;;;;;;10.87;5.30;;;22.50;20.60;;;;;;6213407;23;20404;-81
2021/08/12 18:44:20;;;;;;;9.13;5.37;;;22.40;21.00;;;;;;6224307;23;20487;-82
2021/08/12 18:46:47;;;;;;;9.87;5.30;;;22.40;18.30;;;;;;6215262;23;20408;-83
2021/08/12 18:49:14;;;;;;;9.23;5.10;;;22.40;17.40;;;;;;6215462;23;20428;-82
2021/08/12 18:51:41;;;;;;;9.77;4.43;;;22.40;18.80;;;;;;6214205;23;20543;-82
2021/08/12 18:54:09;;;;;;;10.87;5.50;;;22.20;19.70;;;;;;6215708;23;20402;-82
2021/08/12 18:56:37;;;;;;;11.77;5.50;;;22.20;21.10;;;;;;6225748;23;20454;-82
2021/08/12 18:59:06;;;;;;;11.57;5.97;;;22.20;21.30;;;;;;6225823;23;20724;-82
2021/08/12 19:01:32;;;;;;;13.03;5.70;;;22.00;24.00;;;;;;6215520;23;20435;-82
2021/08/12 19:03:59;;;;;;;10.17;5.80;;;22.00;25.60;;;;;;6215540;23;20395;-82
2021/08/12 19:06:26;;;;;;;13.23;5.50;;;21.90;25.40;;;;;;6213738;23;20442;-81
2021/08/12 19:08:53;;;;;;;11.00;5.87;;;21.90;27.30;;;;;;6215193;23;20887;-82
2021/08/12 19:11:20;;;;;;;12.30;7.70;;;21.70;28.60;;;;;;6215287;23;20462;-81
2021/08/12 19:13:47;;;;;;;12.10;6.70;;;21.70;32.20;;;;;;6215658;23;20400;-82
2021/08/12 19:16:15;;;;;;;12.30;7.10;;;21.60;33.10;;;;;;6215513;23;20425;-85
2021/08/12 19:18:42;;;;;;;13.90;8.30;;;21.50;35.90;;;;;;6215652;23;20433;-80
2021/08/12 19:21:08;;;;;;;10.40;6.67;;;21.40;39.10;;;;;;6225662;23;20397;-82
2021/08/12 19:23:36;;;;;;;12.00;6.90;;;21.30;41.10;;;;;;6214082;23;20397;-79
2021/08/12 19:26:03;;;;;;;12.87;7.23;;;21.20;40.80;;;;;;6225288;23;20415;-79
2021/08/12 19:28:30;;;;;;;10.47;7.10;;;21.10;39.60;;;;;;6225336;23;20411;-82
2021/08/12 19:30:57;;;;;;;13.30;6.63;;;21.10;39.70;;;;;;6215251;23;20493;-82
2021/08/12 19:33:25;;;;;;;13.87;7.80;;;21.00;41.30;;;;;;6214939;23;20442;-82
2021/08/12 19:35:52;;;;;;;11.60;7.10;;;21.00;42.00;;;;;;6215544;23;20462;-82
2021/08/12 19:38:19;;;;;;;10.00;7.30;;;20.90;45.20;;;;;;6214039;23;20400;-84
2021/08/12 19:40:46;;;;;;;12.67;8.53;;;20.90;45.90;;;;;;6215081;23;20400;-83
2021/08/12 19:45:54;;;;;;;17.07;9.10;;;20.80;47.80;;;;;;6207648;22;20459;-81
2021/08/12 19:48:21;;;;;;;10.37;7.50;;;20.80;46.80;;;;;;6215402;23;20789;-83
2021/08/12 19:50:51;;;;;;;12.90;8.53;;;20.70;46.60;;;;;;6215228;23;20619;-81
2021/08/12 19:53:19;;;;;;;22.67;8.23;;;20.70;46.00;;;;;;6223499;23;20416;-82
2021/08/12 19:58:21;;;;;;;10.47;6.90;;;20.60;44.90;;;;;;6214345;22;20483;-82
2021/08/12 20:00:48;;;;;;;13.30;7.10;;;20.60;44.90;;;;;;6217076;23;20447;-84
2021/08/12 20:03:14;;;;;;;13.33;7.73;;;20.50;44.80;;;;;;6217108;23;20451;-84
2021/08/12 20:05:41;;;;;;;12.23;7.40;;;20.40;42.80;;;;;;6217230;23;20703;-83
2021/08/12 20:11:24;;;;;;;12.17;8.33;;;20.20;42.40;;;;;;6062455;23;20457;-87
2021/08/12 20:13:50;;;;;;;17.80;10.70;;;20.20;47.00;;;;;;6077999;23;20814;-81
2021/08/12 20:16:44;;;;;;;16.13;11.07;;;20.10;57.90;;;;;;6124850;23;20485;-88
2021/08/12 20:19:44;;;;;;;14.83;10.13;;;20.00;59.80;;;;;;6119749;23;20501;-87
2021/08/12 20:23:01;;;;;;;14.73;9.50;;;19.80;61.60;;;;;;6133228;23;20402;-85
2021/08/12 21:12:09;;;;;;;;;;;;;;;;;;;;;
2021/08/12 21:21:56;;;;;;;;;;;;;;;;;;;;;
2021/08/12 22:02:02;;;;;;;;;;;;;;;;;;;;;
2021/08/12 22:04:57;;;;;;;75.50;71.50;;;17.00;95.50;;;;;;6062995;23;20435;-87
2021/08/12 22:08:03;;;;;;;82.33;78.17;;;17.00;96.00;;;;;;6064271;23;20464;-87
2021/08/12 22:14:21;;;;;;;;;;;;;;;;;;;;;
2021/08/12 22:16:55;;;;;;;78.20;74.20;;;16.80;97.60;;;;;;6185455;23;20433;-86
2021/08/12 22:19:53;;;;;;;63.30;59.90;;;16.80;98.00;;;;;;6195616;23;20423;-88
2021/08/12 22:25:41;;;;;;;71.60;67.80;;;16.70;98.00;;;;;;6178175;23;20508;-86
2021/08/12 22:28:20;;;;;;;64.77;61.20;;;16.80;98.20;;;;;;6185502;23;20875;-89
2021/08/12 22:31:13;;;;;;;73.63;69.67;;;16.70;98.40;;;;;;6195510;23;20451;-87
2021/08/12 22:33:59;;;;;;;81.10;76.57;;;16.70;99.60;;;;;;6195776;23;20942;-87
2021/08/12 22:36:49;;;;;;;76.47;72.67;;;16.70;99.30;;;;;;6194439;23;20795;-89
2021/08/12 22:39:22;;;;;;;70.17;65.60;;;16.70;99.40;;;;;;6195670;23;20461;-87
2021/08/12 22:41:56;;;;;;;65.90;62.27;;;16.70;99.30;;;;;;6185585;23;20499;-87
2021/08/12 22:44:38;;;;;;;63.80;59.00;;;16.80;99.10;;;;;;6195314;23;20745;-87
2021/08/12 22:47:21;;;;;;;54.00;50.50;;;17.00;97.90;;;;;;6195392;23;20777;-87
2021/08/12 22:50:14;;;;;;;56.93;53.07;;;17.10;97.30;;;;;;6184992;23;20515;-87
2021/08/12 22:53:02;;;;;;;49.03;45.90;;;16.90;97.20;;;;;;6194135;23;20405;-88
2021/08/12 22:55:40;;;;;;;44.50;41.60;;;16.90;97.00;;;;;;6195505;23;20888;-87
2021/08/12 22:58:35;;;;;;;;;;;;;;;;;;;;;
2021/08/12 23:01:14;;;;;;;66.07;62.37;;;16.80;97.80;;;;;;6161359;23;20501;-87
2021/08/12 23:04:05;;;;;;;73.03;68.80;;;16.70;98.50;;;;;;6185040;23;20476;-89
2021/08/12 23:06:44;;;;;;;64.37;60.70;;;16.60;98.50;;;;;;6102093;23;20797;-89
2021/08/12 23:09:49;;;;;;;69.17;65.57;;;16.50;98.10;;;;;;6094113;23;20807;-87
2021/08/12 23:12:47;;;;;;;62.87;59.27;;;16.50;98.10;;;;;;6036339;23;20421;-88
2021/08/12 23:18:42;;;;;;;;;;;;;;;;;;;;;
2021/08/12 23:21:32;;;;;;;56.53;53.27;;;16.50;97.50;;;;;;6087649;23;20423;-88
2021/08/12 23:24:12;;;;;;;54.60;51.50;;;16.50;98.30;;;;;;6103749;23;20442;-88
2021/08/12 23:26:58;;;;;;;50.27;46.97;;;16.50;98.10;;;;;;6103565;23;20419;-89
2021/08/12 23:29:42;;;;;;;;;;;;;;;;;;;;;
2021/08/12 23:32:19;;;;;;;52.33;49.17;;;16.40;98.10;;;;;;6099188;23;20451;-86
2021/08/12 23:35:11;;;;;;;;;;;;;;;;;;;;;
2021/08/12 23:38:07;;;;;;;;;;;;;;;;;;;;;
2021/08/12 23:40:44;;;;;;;30.97;28.33;;;16.30;97.50;;;;;;6183410;23;20416;-87
2021/08/12 23:43:51;;;;;;;28.10;25.30;;;16.30;96.40;;;;;;6186790;23;20459;-88
2021/08/12 23:46:41;;;;;;;27.87;25.67;;;16.30;95.70;;;;;;5983710;23;20421;-87
2021/08/12 23:49:13;;;;;;;32.23;29.63;;;16.30;95.80;;;;;;6161764;23;20503;-88
2021/08/12 23:52:09;;;;;;;34.63;31.10;;;16.30;96.10;;;;;;6195506;23;20809;-87
2021/08/12 23:55:23;;;;;;;;;;;;;;;;;;;;;
